Time;durP1;ratioP1;P1;durP2;ratioP2;P2;SDS_P1;SDS_P2;PMS_P1;PMS_P2;Temp;Humidity;BMP_temperature;BMP_pressure;BME280_temperature;BME280_humidity;BME280_pressure;Samples;Min_cycle;Max_cycle;Signal;HPM_P1;HPM_P2
2021/12/14 00:00:25;;;;;;;24.77;11.68;;;;;;;5.65;100.00;101980.13;843278;23;1338;-85
2021/12/14 00:00:52;;;;;;;22.35;10.95;;;;;;;5.64;100.00;101949.81;842605;23;1362;-85
2021/12/14 00:01:23;;;;;;;20.90;10.02;;;;;;;5.63;100.00;101963.59;851127;23;1236;-85
2021/12/14 00:01:48;;;;;;;20.65;9.45;;;;;;;5.64;100.00;101960.19;851914;23;1235;-86
2021/12/14 00:02:09;;;;;;;17.52;9.00;;;;;;;5.62;100.00;101956.63;843421;23;1417;-86
2021/12/14 00:02:30;;;;;;;15.65;8.15;;;;;;;5.63;100.00;101964.50;842715;23;1339;-85
2021/12/14 00:02:52;;;;;;;14.30;7.70;;;;;;;5.60;100.00;101961.75;846658;23;4213;-85
2021/12/14 00:03:15;;;;;;;14.23;7.53;;;;;;;5.62;100.00;101977.38;850917;23;1226;-86
2021/12/14 00:03:40;;;;;;;11.77;6.47;;;;;;;5.60;100.00;101979.06;854402;23;1326;-86
2021/12/14 00:04:12;;;;;;;12.52;6.95;;;;;;;5.61;100.00;101957.47;852490;23;819;-86
2021/12/14 00:04:35;;;;;;;11.35;6.60;;;;;;;5.61;100.00;101968.72;856674;23;924;-86
2021/12/14 00:05:00;;;;;;;10.50;6.00;;;;;;;5.60;100.00;101955.72;855003;23;1294;-86
2021/12/14 00:05:24;;;;;;;10.68;5.90;;;;;;;5.60;100.00;101960.91;852197;23;854;-86
2021/12/14 00:05:45;;;;;;;11.15;5.88;;;;;;;5.60;100.00;101953.13;850007;23;4220;-86
2021/12/14 00:06:08;;;;;;;11.60;6.18;;;;;;;5.58;100.00;101967.72;846790;23;1372;-86
2021/12/14 00:06:29;;;;;;;12.98;6.70;;;;;;;5.61;100.00;101971.31;843026;23;1330;-85
2021/12/14 00:06:51;;;;;;;13.40;7.53;;;;;;;5.60;100.00;101969.56;851655;23;1145;-86
2021/12/14 00:07:16;;;;;;;14.55;7.95;;;;;;;5.59;100.00;101972.09;855910;23;1317;-86
2021/12/14 00:07:37;;;;;;;14.45;7.63;;;;;;;5.58;100.00;101965.13;855765;23;1292;-87
2021/12/14 00:08:01;;;;;;;11.77;6.68;;;;;;;5.59;100.00;101949.66;851503;23;1516;-86
2021/12/14 00:08:25;;;;;;;7.55;4.72;;;;;;;5.57;100.00;101960.78;842936;23;1124;-87
2021/12/14 00:08:56;;;;;;;7.68;4.85;;;;;;;5.59;100.00;101969.50;838174;23;4212;-85
2021/12/14 00:09:26;;;;;;;9.35;5.20;;;;;;;5.59;100.00;101973.00;844609;23;811;-86
2021/12/14 00:09:49;;;;;;;8.25;5.00;;;;;;;5.58;100.00;101957.34;846208;23;1204;-86
2021/12/14 00:11:51;;;;;;;8.10;5.20;;;;;;;5.59;100.00;101943.56;855026;23;1308;-86
2021/12/14 00:13:03;;;;;;;8.30;4.93;;;;;;;5.55;100.00;101936.50;851179;23;1248;-86
2021/12/14 00:13:52;;;;;;;8.05;4.70;;;;;;;5.57;100.00;101948.69;853095;23;998;-85
2021/12/14 00:15:14;;;;;;;8.73;4.90;;;;;;;5.57;100.00;101953.00;854746;23;4683;-86
2021/12/14 00:15:34;;;;;;;7.40;4.60;;;;;;;5.56;100.00;101946.91;851654;23;840;-86
2021/12/14 00:15:56;;;;;;;7.57;4.70;;;;;;;5.57;100.00;101947.81;851374;23;1304;-86
2021/12/14 00:16:17;;;;;;;7.15;4.35;;;;;;;5.55;100.00;101958.16;847532;23;1281;-86
2021/12/14 00:16:39;;;;;;;6.15;4.13;;;;;;;5.55;100.00;101957.25;852158;23;756;-86
2021/12/14 00:17:00;;;;;;;7.22;4.40;;;;;;;5.54;100.00;101964.16;850153;23;1294;-86
2021/12/14 00:17:27;;;;;;;7.07;4.28;;;;;;;5.56;100.00;101951.22;843464;23;1199;-86
2021/12/14 00:18:04;;;;;;;6.90;4.40;;;;;;;5.57;100.00;101960.78;845856;23;4207;-86
2021/12/14 00:18:25;;;;;;;6.60;4.07;;;;;;;5.57;100.00;101953.88;852818;23;985;-86
2021/12/14 00:18:46;;;;;;;6.93;4.53;;;;;;;5.59;100.00;101956.53;848699;23;771;-86
2021/12/14 00:19:07;;;;;;;7.15;4.43;;;;;;;5.60;100.00;101955.72;855796;23;1280;-86
2021/12/14 00:19:28;;;;;;;7.82;4.63;;;;;;;5.58;100.00;101967.72;851260;23;1191;-86
2021/12/14 00:19:51;;;;;;;7.32;4.28;;;;;;;5.57;100.00;101969.44;851675;23;1218;-86
2021/12/14 00:20:33;;;;;;;7.35;4.60;;;;;;;5.58;100.00;101962.53;847496;23;1164;-86
2021/12/14 00:21:02;;;;;;;8.38;4.78;;;;;;;5.58;100.00;101955.66;841788;23;4311;-86
2021/12/14 00:21:29;;;;;;;7.15;4.60;;;;;;;5.58;100.00;101955.66;847265;23;1551;-86
2021/12/14 00:21:55;;;;;;;8.07;4.80;;;;;;;5.58;100.00;101967.72;851088;23;1584;-86
2021/12/14 00:24:18;;;;;;;7.07;4.93;;;;;;;5.58;100.00;101949.56;850379;23;4686;-86
2021/12/14 00:24:39;;;;;;;7.53;4.82;;;;;;;5.55;100.00;101945.19;843182;23;1344;-86
2021/12/14 00:25:02;;;;;;;7.45;4.15;;;;;;;5.55;100.00;101960.75;847639;23;1191;-86
2021/12/14 00:25:39;;;;;;;6.78;4.28;;;;;;;5.54;100.00;101966.75;854493;23;1232;-86
2021/12/14 00:25:59;;;;;;;6.47;4.10;;;;;;;5.55;100.00;101952.97;855892;23;1245;-86
2021/12/14 00:26:21;;;;;;;6.38;4.13;;;;;;;5.56;100.00;101946.91;846776;23;1401;-86
2021/12/14 00:26:45;;;;;;;7.18;4.28;;;;;;;5.57;100.00;101959.06;845826;23;4270;-86
2021/12/14 00:27:07;;;;;;;6.40;4.30;;;;;;;5.58;100.00;101946.97;846849;23;1180;-86
2021/12/14 00:27:28;;;;;;;7.60;4.32;;;;;;;5.60;100.00;101940.13;843494;23;1240;-86
2021/12/14 00:27:49;;;;;;;7.10;4.60;;;;;;;5.58;100.00;101937.50;842882;23;1180;-86
2021/12/14 00:28:18;;;;;;;7.20;4.60;;;;;;;5.58;100.00;101939.19;843297;23;1228;-86
2021/12/14 00:28:40;;;;;;;6.97;4.38;;;;;;;5.58;100.00;101941.78;846897;23;1330;-86
2021/12/14 00:29:04;;;;;;;6.63;4.40;;;;;;;5.58;100.00;101965.13;852379;23;1453;-86
2021/12/14 00:29:28;;;;;;;6.88;4.30;;;;;;;5.57;100.00;101964.25;850911;23;1164;-86
2021/12/14 00:29:53;;;;;;;6.10;4.30;;;;;;;5.58;100.00;101949.56;846816;23;4268;-86
2021/12/14 00:30:14;;;;;;;6.55;4.47;;;;;;;5.57;100.00;101937.44;848965;23;898;-86
2021/12/14 00:30:36;;;;;;;6.40;4.45;;;;;;;5.58;100.00;101947.88;846147;23;1324;-86
2021/12/14 00:30:59;;;;;;;6.60;4.45;;;;;;;5.58;100.00;101949.56;856003;23;1254;-86
2021/12/14 00:31:21;;;;;;;6.85;4.68;;;;;;;5.57;100.00;101942.63;850723;23;1472;-86
2021/12/14 00:31:42;;;;;;;7.13;4.30;;;;;;;5.57;100.00;101948.69;846053;23;1307;-86
2021/12/14 00:32:07;;;;;;;7.10;4.20;;;;;;;5.56;100.00;101941.72;850832;23;1285;-86
2021/12/14 00:32:35;;;;;;;7.07;4.20;;;;;;;5.55;100.00;101944.28;850379;23;1427;-86
2021/12/14 00:32:55;;;;;;;7.35;4.43;;;;;;;5.55;100.00;101950.38;845771;23;4263;-86
2021/12/14 00:33:20;;;;;;;7.95;4.53;;;;;;;5.55;100.00;101949.47;846519;23;1220;-86
2021/12/14 00:33:45;;;;;;;6.93;4.43;;;;;;;5.53;100.00;101974.47;843086;23;1315;-86
2021/12/14 00:34:08;;;;;;;6.13;4.30;;;;;;;5.55;100.00;101981.50;842523;23;1280;-86
2021/12/14 00:34:40;;;;;;;7.32;4.50;;;;;;;5.54;100.00;101964.16;846374;23;1224;-86
2021/12/14 00:35:10;;;;;;;6.47;4.47;;;;;;;5.52;100.00;101970.09;844199;23;792;-86
2021/12/14 00:35:31;;;;;;;7.22;4.07;;;;;;;5.51;100.00;101948.47;851295;23;1322;-86
2021/12/14 00:35:52;;;;;;;7.30;4.57;;;;;;;5.52;100.00;101976.16;846156;23;4249;-86
2021/12/14 00:36:13;;;;;;;6.93;4.50;;;;;;;5.53;100.00;101956.31;846985;23;1256;-86
2021/12/14 00:36:37;;;;;;;5.95;4.10;;;;;;;5.53;100.00;101970.16;855696;23;1202;-86
2021/12/14 00:36:57;;;;;;;6.03;4.10;;;;;;;5.52;100.00;101975.28;851242;23;1303;-86
2021/12/14 00:37:30;;;;;;;7.50;4.40;;;;;;;5.52;100.00;101959.72;851102;23;1251;-86
2021/12/14 00:37:54;;;;;;;6.93;4.18;;;;;;;5.51;100.00;101952.78;847105;23;916;-86
2021/12/14 00:38:21;;;;;;;7.25;4.40;;;;;;;5.52;100.00;101954.53;842241;23;1313;-87
2021/12/14 00:38:44;;;;;;;6.53;4.20;;;;;;;5.51;100.00;101952.78;845724;23;4270;-86
2021/12/14 00:39:08;;;;;;;6.10;3.80;;;;;;;5.51;100.00;101973.53;851302;23;1301;-86
2021/12/14 00:39:29;;;;;;;6.22;4.05;;;;;;;5.52;100.00;101954.53;846680;23;1305;-86
2021/12/14 00:39:53;;;;;;;6.95;4.50;;;;;;;5.51;100.00;101968.31;838272;23;1262;-86
2021/12/14 00:40:21;;;;;;;6.40;4.30;;;;;;;5.53;100.00;101958.91;842065;23;1363;-86
2021/12/14 00:40:50;;;;;;;6.47;4.18;;;;;;;5.51;100.00;101984.78;846434;23;1016;-85
2021/12/14 00:41:22;;;;;;;6.05;4.00;;;;;;;5.52;100.00;101950.22;846935;23;1041;-86
2021/12/14 00:41:44;;;;;;;6.88;4.40;;;;;;;5.52;100.00;101957.13;845130;23;4308;-86
2021/12/14 00:42:06;;;;;;;7.72;4.78;;;;;;;5.51;100.00;101963.16;846265;23;784;-86
2021/12/14 00:42:26;;;;;;;6.15;4.20;;;;;;;5.52;100.00;101980.47;843453;23;1290;-86
2021/12/14 00:42:48;;;;;;;6.40;4.30;;;;;;;5.51;100.00;101952.78;847023;23;1257;-86
2021/12/14 00:43:09;;;;;;;6.47;4.32;;;;;;;5.50;100.00;101956.19;845629;23;1240;-86
2021/12/14 00:43:29;;;;;;;5.85;4.00;;;;;;;5.50;100.00;101957.09;848267;23;783;-86
2021/12/14 00:43:53;;;;;;;6.23;3.90;;;;;;;5.50;100.00;101969.16;850844;23;1164;-86
2021/12/14 00:44:16;;;;;;;7.05;4.20;;;;;;;5.50;100.00;101953.59;842867;23;1010;-86
2021/12/14 00:44:37;;;;;;;6.45;4.10;;;;;;;5.49;100.00;101951.84;851354;23;1291;-87
2021/12/14 00:44:59;;;;;;;5.72;3.70;;;;;;;5.49;100.00;101959.63;850706;23;4791;-86
2021/12/14 00:45:21;;;;;;;6.00;4.10;;;;;;;5.49;100.00;101955.31;846762;23;1173;-86
2021/12/14 00:45:47;;;;;;;7.03;4.25;;;;;;;5.49;100.00;101964.81;846894;23;1175;-86
2021/12/14 00:46:12;;;;;;;6.50;4.15;;;;;;;5.49;100.00;101952.72;842400;23;1236;-86
2021/12/14 00:46:36;;;;;;;5.85;3.90;;;;;;;5.50;100.00;101953.59;847041;23;1259;-86
2021/12/14 00:46:56;;;;;;;6.53;4.07;;;;;;;5.49;100.00;101967.41;853103;23;1377;-86
2021/12/14 00:47:17;;;;;;;7.15;4.18;;;;;;;5.49;100.00;101951.84;855883;23;1291;-86
2021/12/14 00:47:41;;;;;;;6.78;4.00;;;;;;;5.46;100.00;101974.22;854763;23;1315;-86
2021/12/14 00:48:04;;;;;;;6.35;3.90;;;;;;;5.49;100.00;101954.44;845698;23;4712;-86
2021/12/14 00:48:25;;;;;;;6.38;4.30;;;;;;;5.48;100.00;101960.44;845554;23;1347;-86
2021/12/14 00:48:47;;;;;;;6.40;4.47;;;;;;;5.49;100.00;101946.66;846553;23;1214;-86
2021/12/14 00:49:10;;;;;;;6.65;4.32;;;;;;;5.50;100.00;101953.59;843605;23;1315;-86
2021/12/14 00:49:32;;;;;;;6.88;4.10;;;;;;;5.48;100.00;101952.66;851600;23;1390;-86
2021/12/14 00:49:54;;;;;;;5.88;4.00;;;;;;;5.48;100.00;101947.47;855573;23;1183;-86
2021/12/14 00:50:17;;;;;;;6.30;4.07;;;;;;;5.48;100.00;101948.34;850800;23;1234;-86
2021/12/14 00:50:42;;;;;;;6.82;4.20;;;;;;;5.49;100.00;101944.06;847904;23;1000;-86
2021/12/14 00:51:04;;;;;;;7.07;4.15;;;;;;;5.50;100.00;101958.78;850814;23;6051;-86
2021/12/14 00:51:28;;;;;;;7.30;4.00;;;;;;;5.49;100.00;101944.06;846800;23;1179;-86
2021/12/14 00:51:49;;;;;;;6.72;4.10;;;;;;;5.46;100.00;101950.00;841830;23;1339;-86
2021/12/14 00:52:09;;;;;;;6.50;4.20;;;;;;;5.46;100.00;101948.28;851051;23;1283;-86
2021/12/14 00:52:34;;;;;;;6.70;4.05;;;;;;;5.45;100.00;101979.38;855234;23;1195;-86
2021/12/14 00:52:55;;;;;;;6.13;3.95;;;;;;;5.46;100.00;101940.50;850862;23;1387;-86
2021/12/14 00:53:16;;;;;;;6.20;4.10;;;;;;;5.45;100.00;101953.44;851899;23;914;-86
2021/12/14 00:53:38;;;;;;;5.78;4.03;;;;;;;5.45;100.00;101936.19;848720;23;748;-86
2021/12/14 00:54:03;;;;;;;6.07;4.05;;;;;;;5.48;100.00;101957.84;845892;23;4731;-86
2021/12/14 00:54:24;;;;;;;6.68;4.10;;;;;;;5.48;100.00;101931.91;850631;23;1206;-86
2021/12/14 00:54:45;;;;;;;7.15;4.20;;;;;;;5.46;100.00;101934.44;845851;23;2333;-86
2021/12/14 00:55:08;;;;;;;6.60;4.22;;;;;;;5.49;100.00;101939.75;850722;23;1116;-86
2021/12/14 00:55:36;;;;;;;7.13;4.10;;;;;;;5.48;100.00;101934.50;850545;23;1266;-86
2021/12/14 00:55:58;;;;;;;6.15;4.05;;;;;;;5.48;100.00;101925.00;851028;23;1424;-86
2021/12/14 00:56:19;;;;;;;6.60;4.45;;;;;;;5.48;100.00;101934.50;846920;23;1195;-86
2021/12/14 00:56:40;;;;;;;6.35;4.05;;;;;;;5.44;100.00;101934.41;842414;23;4274;-85
2021/12/14 00:57:04;;;;;;;7.00;4.00;;;;;;;5.43;100.00;101930.03;846907;23;1211;-86
2021/12/14 00:57:25;;;;;;;6.68;4.00;;;;;;;5.43;100.00;101932.63;847616;23;1361;-87
2021/12/14 00:57:45;;;;;;;6.00;3.97;;;;;;;5.44;100.00;101952.56;846672;23;1040;-86
2021/12/14 00:58:06;;;;;;;6.57;4.03;;;;;;;5.45;100.00;101932.69;843051;23;1240;-86
2021/12/14 00:58:27;;;;;;;5.88;3.90;;;;;;;5.44;100.00;101929.22;842505;23;1289;-86
2021/12/14 00:58:48;;;;;;;6.18;4.10;;;;;;;5.45;100.00;101933.59;843225;23;1510;-86
2021/12/14 00:59:13;;;;;;;7.00;4.15;;;;;;;5.45;100.00;101932.69;846825;23;1277;-86
2021/12/14 00:59:33;;;;;;;6.90;4.30;;;;;;;5.43;100.00;101931.75;847060;23;1259;-86
2021/12/14 00:59:54;;;;;;;6.82;4.25;;;;;;;5.44;100.00;101929.22;849871;23;4276;-86
2021/12/14 01:00:20;;;;;;;6.30;4.20;;;;;;;5.45;100.00;101927.50;847146;23;1101;-86
2021/12/14 01:00:49;;;;;;;5.90;3.92;;;;;;;5.44;100.00;101926.63;843358;23;1300;-86
2021/12/14 01:01:18;;;;;;;6.75;4.20;;;;;;;5.44;100.00;101934.41;847738;23;1359;-86
2021/12/14 01:01:44;;;;;;;6.25;3.88;;;;;;;5.42;100.00;101930.84;847109;23;1313;-86
2021/12/14 01:02:10;;;;;;;5.95;3.92;;;;;;;5.43;100.00;101943.00;850682;23;1219;-86
2021/12/14 01:02:30;;;;;;;6.18;3.97;;;;;;;5.43;100.00;101930.03;846805;23;1309;-86
2021/12/14 01:02:52;;;;;;;7.00;4.07;;;;;;;5.42;100.00;101925.66;846033;23;4321;-86
2021/12/14 01:03:12;;;;;;;7.03;4.20;;;;;;;5.43;100.00;101961.16;847132;23;1286;-86
2021/12/14 01:03:37;;;;;;;6.22;3.90;;;;;;;5.43;100.00;101930.03;850276;23;1339;-86
2021/12/14 01:04:03;;;;;;;6.28;3.85;;;;;;;5.44;100.00;101928.31;855194;23;1234;-86
2021/12/14 01:04:34;;;;;;;6.97;4.15;;;;;;;5.44;100.00;101962.03;842638;23;937;-85
2021/12/14 01:05:00;;;;;;;7.10;4.20;;;;;;;5.44;100.00;101930.91;846307;23;1298;-86
2021/12/14 01:05:25;;;;;;;8.07;4.55;;;;;;;5.44;100.00;101933.50;847262;23;1303;-86
2021/12/14 01:05:48;;;;;;;7.13;4.45;;;;;;;5.44;100.00;101937.00;845536;23;4343;-86
2021/12/14 01:06:11;;;;;;;7.30;4.22;;;;;;;5.43;100.00;101924.84;848701;23;799;-86
2021/12/14 01:06:35;;;;;;;7.57;4.22;;;;;;;5.44;100.00;101933.50;847019;23;1391;-86
2021/12/14 01:06:56;;;;;;;6.78;3.95;;;;;;;5.44;100.00;101937.00;842217;23;1344;-86
2021/12/14 01:07:20;;;;;;;6.47;3.95;;;;;;;5.43;100.00;101930.03;846704;23;1477;-86
2021/12/14 01:07:41;;;;;;;6.82;4.30;;;;;;;5.44;100.00;101933.50;843378;23;1276;-86
2021/12/14 01:08:05;;;;;;;6.85;4.15;;;;;;;5.44;100.00;101936.09;847056;23;1309;-86
2021/12/14 01:08:29;;;;;;;6.32;3.90;;;;;;;5.44;100.00;101930.91;847116;23;1206;-86
2021/12/14 01:08:51;;;;;;;6.25;4.25;;;;;;;5.46;100.00;101939.63;850211;23;4224;-86
2021/12/14 01:09:19;;;;;;;6.13;4.10;;;;;;;5.46;100.00;101932.72;855499;23;1227;-86
2021/12/14 01:09:44;;;;;;;5.75;3.90;;;;;;;5.46;100.00;101935.31;850983;23;1213;-85
2021/12/14 01:10:13;;;;;;;7.10;4.22;;;;;;;5.45;100.00;101943.06;846904;23;1236;-86
2021/12/14 01:10:53;;;;;;;6.43;3.90;;;;;;;5.44;100.00;101934.41;852495;23;1007;-86
2021/12/14 01:11:19;;;;;;;6.60;4.13;;;;;;;5.44;100.00;101960.34;850613;23;1167;-87
2021/12/14 01:11:44;;;;;;;6.68;4.22;;;;;;;5.43;100.00;101958.56;841772;23;4274;-86
2021/12/14 01:12:12;;;;;;;5.93;3.95;;;;;;;5.44;100.00;101937.00;845856;23;1200;-86
2021/12/14 01:12:48;;;;;;;6.53;4.13;;;;;;;5.46;100.00;101952.59;845540;23;1283;-86
2021/12/14 01:13:10;;;;;;;6.40;3.97;;;;;;;5.45;100.00;101949.16;850189;23;1291;-86
2021/12/14 01:13:37;;;;;;;5.93;4.15;;;;;;;5.45;100.00;101935.28;847300;23;1495;-85
2021/12/14 01:14:10;;;;;;;6.60;4.38;;;;;;;5.44;100.00;101933.50;849439;23;1226;-86
2021/12/14 01:15:00;;;;;;;6.15;4.20;;;;;;;5.45;100.00;101928.41;842248;23;1885;-86
2021/12/14 01:16:36;;;;;;;6.10;4.10;;;;;;;5.45;100.00;101935.28;848555;23;1333;-86
2021/12/14 01:17:14;;;;;;;6.05;3.80;;;;;;;5.48;100.00;101926.72;850714;23;1117;-86
2021/12/14 01:17:53;;;;;;;5.70;4.00;;;;;;;5.46;100.00;101932.72;850306;23;1352;-86
2021/12/14 01:19:15;;;;;;;6.50;4.30;;;;;;;5.45;100.00;101931.00;850710;23;1275;-86
2021/12/14 01:19:38;;;;;;;7.13;4.20;;;;;;;5.44;100.00;101925.72;850783;23;1388;-86
2021/12/14 01:20:00;;;;;;;7.25;4.40;;;;;;;5.44;100.00;101941.28;851024;23;1275;-86
2021/12/14 01:20:21;;;;;;;6.38;4.40;;;;;;;5.42;100.00;101937.75;852285;23;1009;-86
2021/12/14 01:20:50;;;;;;;5.57;4.03;;;;;;;5.43;100.00;101940.41;841777;23;4312;-86
2021/12/14 01:21:30;;;;;;;7.32;4.22;;;;;;;5.43;100.00;101942.13;846039;23;1301;-86
2021/12/14 01:22:31;;;;;;;7.25;4.30;;;;;;;5.43;100.00;101937.81;847572;23;918;-86
2021/12/14 01:22:46;;;;;;;6.40;4.32;;;;;;;5.44;100.00;101933.50;847906;23;1569;-86
2021/12/14 01:23:17;;;;;;;6.60;4.25;;;;;;;5.45;100.00;101938.78;849340;23;1296;-86
2021/12/14 01:23:43;;;;;;;7.10;4.50;;;;;;;5.45;100.00;101930.09;842003;23;1239;-86
2021/12/14 01:25:02;;;;;;;6.40;4.05;;;;;;;5.49;100.00;101933.69;847430;23;985;-86
2021/12/14 01:25:36;;;;;;;7.50;4.20;;;;;;;5.47;100.00;101933.63;847521;23;1338;-86
2021/12/14 01:26:02;;;;;;;7.82;4.53;;;;;;;5.46;100.00;101930.13;848782;23;1421;-86
2021/12/14 01:26:23;;;;;;;6.25;4.03;;;;;;;5.45;100.00;101941.38;845843;23;1422;-86
2021/12/14 01:26:43;;;;;;;7.22;4.35;;;;;;;5.46;100.00;101934.44;849186;23;4321;-86
2021/12/14 01:27:11;;;;;;;7.05;4.50;;;;;;;5.44;100.00;101946.47;846814;23;1071;-86
2021/12/14 01:27:38;;;;;;;7.50;4.45;;;;;;;5.43;100.00;101955.09;846110;23;1333;-86
2021/12/14 01:28:01;;;;;;;7.28;4.28;;;;;;;5.45;100.00;101943.06;850402;23;1353;-86
2021/12/14 01:28:26;;;;;;;6.95;4.40;;;;;;;5.43;100.00;101931.75;846286;23;1339;-86
2021/12/14 01:28:47;;;;;;;6.47;4.40;;;;;;;5.46;100.00;101948.28;842938;23;1287;-86
2021/12/14 01:29:10;;;;;;;7.33;4.40;;;;;;;5.43;100.00;101944.72;846551;23;1372;-86
2021/12/14 01:29:31;;;;;;;7.22;4.13;;;;;;;5.46;100.00;101981.13;841794;23;1302;-86
2021/12/14 01:29:55;;;;;;;7.10;4.40;;;;;;;5.44;100.00;101933.50;845472;23;4207;-86
2021/12/14 01:30:27;;;;;;;6.85;4.15;;;;;;;5.43;100.00;101949.91;848044;23;795;-86
2021/12/14 01:31:19;;;;;;;9.27;4.75;;;;;;;5.46;100.00;101934.44;849809;23;1280;-86
2021/12/14 01:31:42;;;;;;;7.22;4.40;;;;;;;5.48;100.00;101932.78;844671;23;1439;-86
2021/12/14 01:32:06;;;;;;;6.90;4.40;;;;;;;5.47;100.00;101936.22;846674;23;1412;-86
2021/12/14 01:32:30;;;;;;;7.63;4.72;;;;;;;5.48;100.00;101935.38;849839;23;1125;-86
2021/12/14 01:32:52;;;;;;;7.45;4.70;;;;;;;5.49;100.00;101938.88;844429;23;4300;-86
2021/12/14 01:33:14;;;;;;;6.90;4.43;;;;;;;5.46;100.00;101950.00;850863;23;1288;-86
2021/12/14 01:33:38;;;;;;;6.57;4.22;;;;;;;5.46;100.00;101930.13;850342;23;1275;-86
2021/12/14 01:34:12;;;;;;;7.65;4.25;;;;;;;5.45;100.00;101927.50;846560;23;1201;-86
2021/12/14 01:34:35;;;;;;;8.73;4.50;;;;;;;5.45;100.00;101943.06;842165;23;1343;-86
2021/12/14 01:34:56;;;;;;;6.88;4.22;;;;;;;5.44;100.00;101949.97;838269;23;1566;-86
2021/12/14 01:35:21;;;;;;;6.88;4.32;;;;;;;5.44;100.00;101951.66;838426;23;1160;-86
2021/12/14 01:35:45;;;;;;;6.43;4.28;;;;;;;5.44;100.00;101957.75;840899;23;4249;-86
2021/12/14 01:36:22;;;;;;;7.50;4.53;;;;;;;5.45;100.00;101937.88;850176;23;1232;-86
2021/12/14 01:36:51;;;;;;;6.10;4.30;;;;;;;5.45;100.00;101923.22;851192;23;1163;-86
2021/12/14 01:37:17;;;;;;;6.68;4.30;;;;;;;5.48;100.00;101917.22;850850;23;1299;-86
2021/12/14 01:37:45;;;;;;;6.88;4.20;;;;;;;5.46;100.00;101914.56;849816;23;1367;-86
2021/12/14 01:38:32;;;;;;;8.07;4.35;;;;;;;5.47;100.00;101923.25;849493;23;1381;-87
2021/12/14 01:40:04;;;;;;;6.65;4.32;;;;;;;5.54;100.00;101917.47;849849;23;1255;-86
2021/12/14 01:40:54;;;;;;;7.10;3.97;;;;;;;5.58;100.00;101905.47;849112;23;1250;-86
2021/12/14 01:41:27;;;;;;;6.90;4.00;;;;;;;5.65;100.00;101919.53;851897;23;1384;-86
2021/12/14 01:41:57;;;;;;;5.75;3.85;;;;;;;5.63;100.00;101945.44;848633;23;4315;-86
2021/12/14 01:42:24;;;;;;;6.85;4.30;;;;;;;5.63;100.00;101932.47;854884;23;1222;-86
2021/12/14 01:42:47;;;;;;;7.07;3.97;;;;;;;5.62;100.00;101907.34;854758;23;1084;-86
2021/12/14 01:43:08;;;;;;;7.18;3.95;;;;;;;5.59;100.00;101926.31;850059;23;1426;-86
2021/12/14 01:43:35;;;;;;;6.75;4.18;;;;;;;5.62;100.00;101936.78;850126;23;1140;-86
2021/12/14 01:43:59;;;;;;;6.60;4.07;;;;;;;5.62;100.00;101934.19;846142;23;1262;-87
2021/12/14 01:44:31;;;;;;;7.03;4.50;;;;;;;5.61;100.00;101932.41;850717;23;1114;-86
2021/12/14 01:44:58;;;;;;;8.13;4.30;;;;;;;5.60;100.00;101916.78;850385;23;4231;-87
2021/12/14 01:45:26;;;;;;;6.72;3.90;;;;;;;5.59;100.00;101923.69;854183;23;862;-87
2021/12/14 01:45:48;;;;;;;6.50;3.90;;;;;;;5.58;100.00;101928.81;850518;23;1319;-86
2021/12/14 01:46:23;;;;;;;7.00;4.00;;;;;;;5.60;100.00;101919.38;854379;23;1137;-87
2021/12/14 01:46:53;;;;;;;6.85;4.20;;;;;;;5.58;100.00;101939.19;846544;23;1511;-86
2021/12/14 01:47:39;;;;;;;7.35;4.25;;;;;;;5.58;100.00;101923.63;851249;23;663;-86
2021/12/14 01:48:30;;;;;;;6.95;4.32;;;;;;;5.55;100.00;101919.22;832238;23;4698;-86
2021/12/14 01:49:20;;;;;;;6.72;4.00;;;;;;;5.56;100.00;101927.88;833675;23;1500;-86
2021/12/14 01:50:19;;;;;;;7.00;4.13;;;;;;;5.58;100.00;101926.22;823145;24;1204;-86
2021/12/14 01:51:06;;;;;;;7.63;4.40;;;;;;;5.56;100.00;101953.81;841237;23;1238;-86
2021/12/14 01:51:36;;;;;;;6.93;4.40;;;;;;;5.56;100.00;101944.31;839289;23;949;-86
2021/12/14 01:52:10;;;;;;;8.20;4.70;;;;;;;5.58;100.00;101967.72;846667;23;1351;-86
2021/12/14 01:52:33;;;;;;;8.95;4.75;;;;;;;5.61;100.00;101947.09;845898;23;1316;-86
2021/12/14 01:52:56;;;;;;;14.35;6.45;;;;;;;5.58;100.00;101940.09;842175;23;1325;-86
2021/12/14 01:53:22;;;;;;;17.23;7.95;;;;;;;5.60;100.00;101950.53;841939;23;1493;-86
2021/12/14 01:53:47;;;;;;;15.05;8.00;;;;;;;5.57;100.00;101948.69;841514;23;4251;-86
2021/12/14 01:54:11;;;;;;;15.77;7.88;;;;;;;5.59;100.00;101940.97;843938;23;914;-86
2021/12/14 01:54:37;;;;;;;15.35;7.35;;;;;;;5.60;100.00;101942.75;843377;23;826;-86
2021/12/14 01:55:05;;;;;;;12.65;6.72;;;;;;;5.60;100.00;101948.78;850088;23;1354;-85
2021/12/14 01:55:30;;;;;;;12.95;6.60;;;;;;;5.60;100.00;101963.50;849011;23;840;-86
2021/12/14 01:55:55;;;;;;;11.82;6.25;;;;;;;5.60;100.00;101950.53;851124;23;1461;-86
2021/12/14 01:56:22;;;;;;;11.98;5.82;;;;;;;5.59;100.00;101941.88;846508;23;1244;-86
2021/12/14 01:56:44;;;;;;;10.43;5.78;;;;;;;5.58;100.00;101953.06;845610;23;4233;-86
2021/12/14 01:57:08;;;;;;;10.15;5.20;;;;;;;5.58;100.00;101958.25;853858;23;1112;-86
2021/12/14 01:57:31;;;;;;;9.75;5.07;;;;;;;5.59;100.00;101953.94;850754;23;1371;-86
2021/12/14 01:57:54;;;;;;;9.40;5.40;;;;;;;5.60;100.00;101966.09;850488;23;1348;-86
2021/12/14 01:58:15;;;;;;;11.25;5.85;;;;;;;5.61;100.00;101955.75;846574;23;1244;-85
2021/12/14 01:58:41;;;;;;;15.30;8.13;;;;;;;5.60;100.00;101968.69;846455;23;1318;-86
2021/12/14 01:59:09;;;;;;;18.65;9.32;;;;;;;5.60;100.00;101948.78;849985;23;1286;-86
2021/12/14 01:59:36;;;;;;;22.30;11.45;;;;;;;5.61;100.00;101975.66;841890;23;1232;-86
2021/12/14 02:00:01;;;;;;;25.27;11.52;;;;;;;5.60;100.00;101947.94;845390;23;4760;-86
2021/12/14 02:00:35;;;;;;;21.08;10.70;;;;;;;5.60;100.00;101945.31;845841;23;1294;-86
2021/12/14 02:01:04;;;;;;;25.58;12.48;;;;;;;5.61;100.00;101947.97;849690;23;766;-86
2021/12/14 02:01:36;;;;;;;33.88;15.57;;;;;;;5.61;100.00;101942.78;853963;23;1244;-86
2021/12/14 02:02:19;;;;;;;30.25;14.82;;;;;;;5.59;100.00;101954.84;853898;23;1247;-86
2021/12/14 02:02:43;;;;;;;27.42;13.20;;;;;;;5.59;100.00;101970.41;848859;23;4279;-86
2021/12/14 02:03:06;;;;;;;25.65;12.57;;;;;;;5.59;100.00;101935.78;852204;23;985;-86
2021/12/14 02:03:31;;;;;;;22.20;10.98;;;;;;;5.58;100.00;101940.09;850750;23;1316;-87
2021/12/14 02:03:58;;;;;;;15.75;7.95;;;;;;;5.57;100.00;101929.66;846332;23;1441;-86
2021/12/14 02:04:27;;;;;;;15.38;8.10;;;;;;;5.56;100.00;101930.47;846548;23;1326;-86
2021/12/14 02:04:53;;;;;;;13.63;7.30;;;;;;;5.57;100.00;101932.25;846512;23;1343;-86
2021/12/14 02:05:18;;;;;;;16.23;8.68;;;;;;;5.56;100.00;101935.66;850347;23;1430;-86
2021/12/14 02:05:44;;;;;;;17.88;9.48;;;;;;;5.56;100.00;101946.03;845388;23;5013;-86
2021/12/14 02:06:05;;;;;;;20.60;10.02;;;;;;;5.56;100.00;101952.09;846237;23;1248;-86
2021/12/14 02:06:32;;;;;;;17.60;9.18;;;;;;;5.57;100.00;101940.03;842419;23;1091;-86
2021/12/14 02:07:05;;;;;;;15.63;8.30;;;;;;;5.59;100.00;101935.78;842353;23;1434;-86
2021/12/14 02:07:27;;;;;;;14.40;7.38;;;;;;;5.59;100.00;101951.34;845753;23;1299;-86
2021/12/14 02:07:49;;;;;;;10.30;6.05;;;;;;;5.61;100.00;101949.69;846144;23;1219;-86
2021/12/14 02:08:26;;;;;;;10.43;5.90;;;;;;;5.59;100.00;101946.16;850684;23;1216;-86
2021/12/14 02:08:55;;;;;;;9.93;6.00;;;;;;;5.61;100.00;101941.91;845184;23;4243;-86
2021/12/14 02:09:17;;;;;;;11.57;6.20;;;;;;;5.59;100.00;101972.09;846864;23;1267;-86
2021/12/14 02:09:39;;;;;;;10.35;6.10;;;;;;;5.60;100.00;101937.56;845510;23;1351;-86
2021/12/14 02:10:07;;;;;;;9.20;5.45;;;;;;;5.59;100.00;101973.00;842149;23;1082;-86
2021/12/14 02:10:36;;;;;;;10.82;5.80;;;;;;;5.60;100.00;101942.75;842559;23;1344;-86
2021/12/14 02:10:58;;;;;;;10.65;6.47;;;;;;;5.59;100.00;101972.09;845776;23;1445;-86
2021/12/14 02:11:19;;;;;;;13.38;7.55;;;;;;;5.58;100.00;101953.06;850212;23;1498;-86
2021/12/14 02:11:48;;;;;;;11.38;6.43;;;;;;;5.57;100.00;101947.81;840530;23;4267;-86
2021/12/14 02:12:13;;;;;;;11.65;6.65;;;;;;;5.57;100.00;101953.00;854478;23;1234;-86
2021/12/14 02:12:41;;;;;;;12.45;7.13;;;;;;;5.56;100.00;101949.50;850174;23;1295;-86
2021/12/14 02:13:03;;;;;;;15.70;8.05;;;;;;;5.58;100.00;101949.56;846910;23;1420;-86
2021/12/14 02:13:32;;;;;;;17.15;8.30;;;;;;;5.57;100.00;101940.91;850409;23;1420;-87